sensor_id;sensor_type;location;lat;lon;timestamp;P1;durP1;ratioP1;P2;durP2;ratioP2
13793;SDS011;31160;49.500;7.772;2023-04-07T00:00:22;5.00;;;3.80;;
13793;SDS011;31160;49.500;7.772;2023-04-07T00:02:49;5.67;;;3.43;;
13793;SDS011;31160;49.500;7.772;2023-04-07T00:05:17;4.90;;;3.73;;
13793;SDS011;31160;49.500;7.772;2023-04-07T00:07:43;4.37;;;3.60;;
13793;SDS011;31160;49.500;7.772;2023-04-07T00:10:22;9.30;;;3.70;;
13793;SDS011;31160;49.500;7.772;2023-04-07T00:12:50;5.47;;;3.83;;
13793;SDS011;31160;49.500;7.772;2023-04-07T00:15:17;4.50;;;3.80;;
13793;SDS011;31160;49.500;7.772;2023-04-07T00:17:44;4.23;;;3.47;;
13793;SDS011;31160;49.500;7.772;2023-04-07T00:20:11;6.07;;;4.33;;
13793;SDS011;31160;49.500;7.772;2023-04-07T00:22:37;5.20;;;3.97;;
13793;SDS011;31160;49.500;7.772;2023-04-07T00:25:04;6.03;;;4.33;;
13793;SDS011;31160;49.500;7.772;2023-04-07T00:27:32;6.70;;;4.43;;
13793;SDS011;31160;49.500;7.772;2023-04-07T00:29:58;4.23;;;3.60;;
13793;SDS011;31160;49.500;7.772;2023-04-07T00:32:25;4.47;;;3.70;;
13793;SDS011;31160;49.500;7.772;2023-04-07T00:34:52;4.50;;;3.40;;
13793;SDS011;31160;49.500;7.772;2023-04-07T00:37:18;7.27;;;3.80;;
13793;SDS011;31160;49.500;7.772;2023-04-07T00:39:45;7.37;;;4.17;;
13793;SDS011;31160;49.500;7.772;2023-04-07T00:42:12;5.47;;;3.90;;
13793;SDS011;31160;49.500;7.772;2023-04-07T00:44:39;8.13;;;3.80;;
13793;SDS011;31160;49.500;7.772;2023-04-07T00:47:06;6.90;;;4.17;;
13793;SDS011;31160;49.500;7.772;2023-04-07T00:49:33;5.30;;;4.07;;
13793;SDS011;31160;49.500;7.772;2023-04-07T00:52:01;6.17;;;4.07;;
13793;SDS011;31160;49.500;7.772;2023-04-07T00:54:30;9.23;;;4.63;;
13793;SDS011;31160;49.500;7.772;2023-04-07T00:56:56;6.83;;;4.80;;
13793;SDS011;31160;49.500;7.772;2023-04-07T00:59:23;6.30;;;4.53;;
13793;SDS011;31160;49.500;7.772;2023-04-07T01:04:34;7.43;;;4.77;;
13793;SDS011;31160;49.500;7.772;2023-04-07T01:07:10;7.40;;;5.00;;
13793;SDS011;31160;49.500;7.772;2023-04-07T01:09:56;5.77;;;4.20;;
13793;SDS011;31160;49.500;7.772;2023-04-07T01:14:57;6.33;;;4.07;;
13793;SDS011;31160;49.500;7.772;2023-04-07T01:17:41;7.63;;;3.93;;
13793;SDS011;31160;49.500;7.772;2023-04-07T01:20:11;5.90;;;4.47;;
13793;SDS011;31160;49.500;7.772;2023-04-07T01:22:42;5.27;;;4.20;;
13793;SDS011;31160;49.500;7.772;2023-04-07T01:27:57;6.87;;;4.47;;
13793;SDS011;31160;49.500;7.772;2023-04-07T01:30:37;5.40;;;4.20;;
13793;SDS011;31160;49.500;7.772;2023-04-07T01:33:06;6.77;;;4.90;;
13793;SDS011;31160;49.500;7.772;2023-04-07T01:35:35;5.10;;;4.60;;
13793;SDS011;31160;49.500;7.772;2023-04-07T01:38:03;6.37;;;4.40;;
13793;SDS011;31160;49.500;7.772;2023-04-07T01:40:32;4.00;;;3.60;;
13793;SDS011;31160;49.500;7.772;2023-04-07T01:43:00;7.47;;;4.07;;
13793;SDS011;31160;49.500;7.772;2023-04-07T01:45:27;5.27;;;3.90;;
13793;SDS011;31160;49.500;7.772;2023-04-07T01:47:55;3.93;;;3.37;;
13793;SDS011;31160;49.500;7.772;2023-04-07T01:50:23;4.40;;;3.30;;
13793;SDS011;31160;49.500;7.772;2023-04-07T01:52:51;6.70;;;3.80;;
13793;SDS011;31160;49.500;7.772;2023-04-07T01:55:18;5.90;;;3.90;;
13793;SDS011;31160;49.500;7.772;2023-04-07T01:57:54;5.47;;;4.00;;
13793;SDS011;31160;49.500;7.772;2023-04-07T02:00:21;5.60;;;4.50;;
13793;SDS011;31160;49.500;7.772;2023-04-07T02:02:54;5.70;;;4.30;;
13793;SDS011;31160;49.500;7.772;2023-04-07T02:05:24;6.57;;;4.07;;
13793;SDS011;31160;49.500;7.772;2023-04-07T02:07:57;5.17;;;3.53;;
13793;SDS011;31160;49.500;7.772;2023-04-07T02:10:28;5.57;;;3.70;;
13793;SDS011;31160;49.500;7.772;2023-04-07T02:12:58;5.10;;;4.10;;
13793;SDS011;31160;49.500;7.772;2023-04-07T02:15:27;5.40;;;3.80;;
13793;SDS011;31160;49.500;7.772;2023-04-07T02:17:56;5.13;;;4.13;;
13793;SDS011;31160;49.500;7.772;2023-04-07T02:20:25;8.70;;;3.90;;
13793;SDS011;31160;49.500;7.772;2023-04-07T02:22:53;5.47;;;4.67;;
13793;SDS011;31160;49.500;7.772;2023-04-07T02:25:21;8.63;;;5.10;;
13793;SDS011;31160;49.500;7.772;2023-04-07T02:27:52;8.17;;;5.27;;
13793;SDS011;31160;49.500;7.772;2023-04-07T02:30:20;7.17;;;4.70;;
13793;SDS011;31160;49.500;7.772;2023-04-07T02:32:49;7.70;;;4.80;;
13793;SDS011;31160;49.500;7.772;2023-04-07T02:35:16;6.50;;;4.70;;
13793;SDS011;31160;49.500;7.772;2023-04-07T02:37:43;6.07;;;4.80;;
13793;SDS011;31160;49.500;7.772;2023-04-07T02:40:11;4.80;;;4.13;;
13793;SDS011;31160;49.500;7.772;2023-04-07T02:42:38;6.50;;;4.40;;
13793;SDS011;31160;49.500;7.772;2023-04-07T02:45:06;7.03;;;4.70;;
13793;SDS011;31160;49.500;7.772;2023-04-07T02:47:35;7.00;;;4.40;;
13793;SDS011;31160;49.500;7.772;2023-04-07T02:50:03;5.27;;;3.83;;
13793;SDS011;31160;49.500;7.772;2023-04-07T02:52:33;5.60;;;4.50;;
13793;SDS011;31160;49.500;7.772;2023-04-07T02:55:03;5.53;;;4.50;;
13793;SDS011;31160;49.500;7.772;2023-04-07T02:57:31;5.43;;;4.27;;
13793;SDS011;31160;49.500;7.772;2023-04-07T03:00:00;5.37;;;4.57;;
13793;SDS011;31160;49.500;7.772;2023-04-07T03:02:43;5.40;;;4.00;;
13793;SDS011;31160;49.500;7.772;2023-04-07T03:05:10;5.03;;;3.93;;
13793;SDS011;31160;49.500;7.772;2023-04-07T03:07:37;6.57;;;4.00;;
13793;SDS011;31160;49.500;7.772;2023-04-07T03:10:04;8.23;;;4.47;;
13793;SDS011;31160;49.500;7.772;2023-04-07T03:12:31;7.00;;;4.90;;
13793;SDS011;31160;49.500;7.772;2023-04-07T03:14:58;5.43;;;4.43;;
13793;SDS011;31160;49.500;7.772;2023-04-07T03:17:25;6.37;;;4.50;;
13793;SDS011;31160;49.500;7.772;2023-04-07T03:19:52;5.23;;;4.43;;
13793;SDS011;31160;49.500;7.772;2023-04-07T03:22:19;5.80;;;4.90;;
13793;SDS011;31160;49.500;7.772;2023-04-07T03:24:49;6.67;;;4.90;;
13793;SDS011;31160;49.500;7.772;2023-04-07T03:27:19;8.77;;;4.97;;
13793;SDS011;31160;49.500;7.772;2023-04-07T03:29:47;5.80;;;4.50;;
13793;SDS011;31160;49.500;7.772;2023-04-07T03:32:15;5.20;;;3.93;;
13793;SDS011;31160;49.500;7.772;2023-04-07T03:34:42;6.20;;;4.47;;
13793;SDS011;31160;49.500;7.772;2023-04-07T03:37:09;4.17;;;3.77;;
13793;SDS011;31160;49.500;7.772;2023-04-07T03:39:36;6.10;;;4.53;;
13793;SDS011;31160;49.500;7.772;2023-04-07T03:42:17;5.53;;;4.37;;
13793;SDS011;31160;49.500;7.772;2023-04-07T03:44:44;4.63;;;4.07;;
13793;SDS011;31160;49.500;7.772;2023-04-07T03:47:11;6.43;;;4.57;;
13793;SDS011;31160;49.500;7.772;2023-04-07T03:49:38;5.73;;;4.50;;
13793;SDS011;31160;49.500;7.772;2023-04-07T03:52:05;4.83;;;4.20;;
13793;SDS011;31160;49.500;7.772;2023-04-07T03:54:32;6.03;;;4.17;;
13793;SDS011;31160;49.500;7.772;2023-04-07T03:57:00;6.13;;;4.07;;
13793;SDS011;31160;49.500;7.772;2023-04-07T03:59:30;6.73;;;4.43;;
13793;SDS011;31160;49.500;7.772;2023-04-07T04:02:01;5.80;;;3.90;;
13793;SDS011;31160;49.500;7.772;2023-04-07T04:04:29;5.73;;;3.87;;
13793;SDS011;31160;49.500;7.772;2023-04-07T04:06:56;7.03;;;4.30;;
13793;SDS011;31160;49.500;7.772;2023-04-07T04:09:52;5.80;;;4.13;;
13793;SDS011;31160;49.500;7.772;2023-04-07T04:12:19;5.07;;;3.60;;
13793;SDS011;31160;49.500;7.772;2023-04-07T04:15:00;5.07;;;4.00;;
13793;SDS011;31160;49.500;7.772;2023-04-07T04:17:28;7.07;;;4.73;;
13793;SDS011;31160;49.500;7.772;2023-04-07T04:19:55;5.67;;;4.80;;
13793;SDS011;31160;49.500;7.772;2023-04-07T04:22:29;6.20;;;4.33;;
13793;SDS011;31160;49.500;7.772;2023-04-07T04:24:57;6.30;;;4.70;;
13793;SDS011;31160;49.500;7.772;2023-04-07T04:27:26;5.70;;;5.03;;
13793;SDS011;31160;49.500;7.772;2023-04-07T04:30:01;5.53;;;4.53;;
13793;SDS011;31160;49.500;7.772;2023-04-07T04:32:34;6.83;;;4.73;;
13793;SDS011;31160;49.500;7.772;2023-04-07T04:35:01;5.53;;;4.23;;
13793;SDS011;31160;49.500;7.772;2023-04-07T04:37:32;6.43;;;4.30;;
13793;SDS011;31160;49.500;7.772;2023-04-07T04:40:01;7.40;;;5.30;;
13793;SDS011;31160;49.500;7.772;2023-04-07T04:42:28;6.10;;;4.73;;
13793;SDS011;31160;49.500;7.772;2023-04-07T04:44:56;6.87;;;4.97;;
13793;SDS011;31160;49.500;7.772;2023-04-07T04:47:24;7.43;;;4.97;;
13793;SDS011;31160;49.500;7.772;2023-04-07T04:49:51;5.83;;;4.83;;
13793;SDS011;31160;49.500;7.772;2023-04-07T04:52:18;7.87;;;4.97;;
13793;SDS011;31160;49.500;7.772;2023-04-07T04:54:47;6.50;;;4.60;;
13793;SDS011;31160;49.500;7.772;2023-04-07T04:57:14;6.20;;;4.70;;
13793;SDS011;31160;49.500;7.772;2023-04-07T04:59:42;5.77;;;5.03;;
13793;SDS011;31160;49.500;7.772;2023-04-07T05:02:09;5.90;;;4.70;;
13793;SDS011;31160;49.500;7.772;2023-04-07T05:04:36;8.90;;;5.70;;
13793;SDS011;31160;49.500;7.772;2023-04-07T05:07:16;6.37;;;4.53;;
13793;SDS011;31160;49.500;7.772;2023-04-07T05:09:44;5.97;;;4.77;;
13793;SDS011;31160;49.500;7.772;2023-04-07T05:12:11;9.10;;;4.80;;
13793;SDS011;31160;49.500;7.772;2023-04-07T05:14:43;8.00;;;5.50;;
13793;SDS011;31160;49.500;7.772;2023-04-07T05:17:10;5.43;;;4.83;;
13793;SDS011;31160;49.500;7.772;2023-04-07T05:19:37;6.60;;;5.23;;
13793;SDS011;31160;49.500;7.772;2023-04-07T05:22:11;5.70;;;4.70;;
13793;SDS011;31160;49.500;7.772;2023-04-07T05:24:43;7.33;;;5.30;;
13793;SDS011;31160;49.500;7.772;2023-04-07T05:27:10;7.00;;;5.73;;
13793;SDS011;31160;49.500;7.772;2023-04-07T05:29:37;7.97;;;5.47;;
13793;SDS011;31160;49.500;7.772;2023-04-07T05:32:08;7.83;;;5.77;;
13793;SDS011;31160;49.500;7.772;2023-04-07T05:34:34;7.73;;;5.23;;
13793;SDS011;31160;49.500;7.772;2023-04-07T05:37:01;5.93;;;5.07;;
13793;SDS011;31160;49.500;7.772;2023-04-07T05:39:29;6.83;;;5.33;;
13793;SDS011;31160;49.500;7.772;2023-04-07T05:41:56;6.57;;;5.13;;
13793;SDS011;31160;49.500;7.772;2023-04-07T05:44:25;6.83;;;4.77;;
13793;SDS011;31160;49.500;7.772;2023-04-07T05:46:53;6.60;;;5.07;;
13793;SDS011;31160;49.500;7.772;2023-04-07T05:49:21;5.77;;;4.53;;
13793;SDS011;31160;49.500;7.772;2023-04-07T05:51:56;7.10;;;5.50;;
13793;SDS011;31160;49.500;7.772;2023-04-07T05:54:23;8.37;;;5.77;;
13793;SDS011;31160;49.500;7.772;2023-04-07T05:56:51;9.70;;;6.00;;
13793;SDS011;31160;49.500;7.772;2023-04-07T05:59:19;9.57;;;6.50;;
13793;SDS011;31160;49.500;7.772;2023-04-07T06:01:45;7.47;;;5.70;;
13793;SDS011;31160;49.500;7.772;2023-04-07T06:04:12;9.83;;;6.20;;
13793;SDS011;31160;49.500;7.772;2023-04-07T06:06:39;12.17;;;6.07;;
13793;SDS011;31160;49.500;7.772;2023-04-07T06:09:06;8.97;;;5.93;;
13793;SDS011;31160;49.500;7.772;2023-04-07T06:11:33;7.77;;;5.70;;
13793;SDS011;31160;49.500;7.772;2023-04-07T06:14:00;7.37;;;5.47;;
13793;SDS011;31160;49.500;7.772;2023-04-07T06:16:27;7.00;;;5.30;;
13793;SDS011;31160;49.500;7.772;2023-04-07T06:18:53;7.90;;;5.57;;
13793;SDS011;31160;49.500;7.772;2023-04-07T06:21:20;7.40;;;5.73;;
13793;SDS011;31160;49.500;7.772;2023-04-07T06:23:47;9.47;;;5.47;;
13793;SDS011;31160;49.500;7.772;2023-04-07T06:26:14;6.70;;;5.30;;
13793;SDS011;31160;49.500;7.772;2023-04-07T06:28:41;6.73;;;5.23;;
13793;SDS011;31160;49.500;7.772;2023-04-07T06:31:08;8.47;;;5.93;;
13793;SDS011;31160;49.500;7.772;2023-04-07T06:33:36;8.37;;;5.87;;
13793;SDS011;31160;49.500;7.772;2023-04-07T06:36:02;8.80;;;5.67;;
13793;SDS011;31160;49.500;7.772;2023-04-07T06:38:29;9.20;;;5.93;;
13793;SDS011;31160;49.500;7.772;2023-04-07T06:40:57;7.87;;;5.87;;
13793;SDS011;31160;49.500;7.772;2023-04-07T06:43:23;7.53;;;6.10;;
13793;SDS011;31160;49.500;7.772;2023-04-07T06:45:58;6.33;;;5.20;;
13793;SDS011;31160;49.500;7.772;2023-04-07T06:48:25;7.40;;;5.87;;
13793;SDS011;31160;49.500;7.772;2023-04-07T06:50:51;7.87;;;5.70;;
13793;SDS011;31160;49.500;7.772;2023-04-07T06:53:18;12.33;;;5.77;;
13793;SDS011;31160;49.500;7.772;2023-04-07T06:55:45;6.93;;;5.73;;
13793;SDS011;31160;49.500;7.772;2023-04-07T06:58:11;9.87;;;6.30;;
13793;SDS011;31160;49.500;7.772;2023-04-07T07:00:38;8.97;;;6.47;;
13793;SDS011;31160;49.500;7.772;2023-04-07T07:03:05;7.90;;;6.20;;
13793;SDS011;31160;49.500;7.772;2023-04-07T07:05:32;8.47;;;6.07;;
13793;SDS011;31160;49.500;7.772;2023-04-07T07:07:58;9.63;;;6.10;;
13793;SDS011;31160;49.500;7.772;2023-04-07T07:10:25;8.50;;;6.13;;
13793;SDS011;31160;49.500;7.772;2023-04-07T07:12:52;9.33;;;6.00;;
13793;SDS011;31160;49.500;7.772;2023-04-07T07:15:19;8.70;;;6.73;;
13793;SDS011;31160;49.500;7.772;2023-04-07T07:17:45;8.47;;;6.53;;
13793;SDS011;31160;49.500;7.772;2023-04-07T07:20:12;10.27;;;7.70;;
13793;SDS011;31160;49.500;7.772;2023-04-07T07:22:39;9.53;;;6.33;;
13793;SDS011;31160;49.500;7.772;2023-04-07T07:25:06;7.37;;;6.43;;
13793;SDS011;31160;49.500;7.772;2023-04-07T07:27:33;8.60;;;6.60;;
13793;SDS011;31160;49.500;7.772;2023-04-07T07:30:00;10.80;;;7.97;;
13793;SDS011;31160;49.500;7.772;2023-04-07T07:32:27;10.80;;;6.40;;
13793;SDS011;31160;49.500;7.772;2023-04-07T07:34:53;8.87;;;6.00;;
13793;SDS011;31160;49.500;7.772;2023-04-07T07:37:20;7.83;;;5.70;;
13793;SDS011;31160;49.500;7.772;2023-04-07T07:39:47;8.83;;;5.70;;
13793;SDS011;31160;49.500;7.772;2023-04-07T07:42:14;8.80;;;6.30;;
13793;SDS011;31160;49.500;7.772;2023-04-07T07:44:41;8.83;;;6.40;;
13793;SDS011;31160;49.500;7.772;2023-04-07T07:47:08;7.23;;;6.10;;
13793;SDS011;31160;49.500;7.772;2023-04-07T07:49:34;11.93;;;7.17;;
13793;SDS011;31160;49.500;7.772;2023-04-07T07:52:01;9.23;;;6.80;;
13793;SDS011;31160;49.500;7.772;2023-04-07T07:54:28;10.87;;;7.17;;
13793;SDS011;31160;49.500;7.772;2023-04-07T07:56:55;10.73;;;7.27;;
13793;SDS011;31160;49.500;7.772;2023-04-07T07:59:22;10.67;;;7.43;;
13793;SDS011;31160;49.500;7.772;2023-04-07T08:01:49;11.53;;;6.87;;
13793;SDS011;31160;49.500;7.772;2023-04-07T08:04:15;9.63;;;6.83;;
13793;SDS011;31160;49.500;7.772;2023-04-07T08:06:43;10.50;;;6.43;;
13793;SDS011;31160;49.500;7.772;2023-04-07T08:09:09;8.97;;;6.10;;
13793;SDS011;31160;49.500;7.772;2023-04-07T08:11:36;8.73;;;5.90;;
13793;SDS011;31160;49.500;7.772;2023-04-07T08:14:03;7.03;;;5.73;;
13793;SDS011;31160;49.500;7.772;2023-04-07T08:16:30;15.40;;;10.50;;
13793;SDS011;31160;49.500;7.772;2023-04-07T08:18:56;10.50;;;7.13;;
13793;SDS011;31160;49.500;7.772;2023-04-07T08:21:23;7.53;;;6.20;;
13793;SDS011;31160;49.500;7.772;2023-04-07T08:23:54;8.83;;;6.67;;
13793;SDS011;31160;49.500;7.772;2023-04-07T08:26:21;10.37;;;6.63;;
13793;SDS011;31160;49.500;7.772;2023-04-07T08:28:48;12.07;;;6.20;;
13793;SDS011;31160;49.500;7.772;2023-04-07T08:31:18;9.67;;;5.87;;
13793;SDS011;31160;49.500;7.772;2023-04-07T08:33:45;11.23;;;6.10;;
13793;SDS011;31160;49.500;7.772;2023-04-07T08:36:12;8.63;;;6.30;;
13793;SDS011;31160;49.500;7.772;2023-04-07T08:38:39;8.63;;;6.67;;
13793;SDS011;31160;49.500;7.772;2023-04-07T08:41:07;9.47;;;5.77;;
13793;SDS011;31160;49.500;7.772;2023-04-07T08:43:37;8.37;;;6.23;;
13793;SDS011;31160;49.500;7.772;2023-04-07T08:46:04;6.50;;;5.37;;
13793;SDS011;31160;49.500;7.772;2023-04-07T08:48:34;7.30;;;4.97;;
13793;SDS011;31160;49.500;7.772;2023-04-07T08:51:04;7.70;;;5.30;;
13793;SDS011;31160;49.500;7.772;2023-04-07T08:53:48;8.23;;;5.10;;
13793;SDS011;31160;49.500;7.772;2023-04-07T08:56:16;9.07;;;5.63;;
13793;SDS011;31160;49.500;7.772;2023-04-07T08:58:46;8.20;;;5.70;;
13793;SDS011;31160;49.500;7.772;2023-04-07T09:01:14;8.23;;;5.33;;
13793;SDS011;31160;49.500;7.772;2023-04-07T09:03:43;9.40;;;6.03;;
13793;SDS011;31160;49.500;7.772;2023-04-07T09:06:11;8.43;;;6.47;;
13793;SDS011;31160;49.500;7.772;2023-04-07T09:08:39;8.87;;;6.03;;
13793;SDS011;31160;49.500;7.772;2023-04-07T09:11:06;11.53;;;8.10;;
13793;SDS011;31160;49.500;7.772;2023-04-07T09:13:32;9.37;;;6.67;;
13793;SDS011;31160;49.500;7.772;2023-04-07T09:16:00;10.83;;;7.17;;
13793;SDS011;31160;49.500;7.772;2023-04-07T09:18:28;8.47;;;6.80;;
13793;SDS011;31160;49.500;7.772;2023-04-07T09:23:27;12.00;;;7.77;;
13793;SDS011;31160;49.500;7.772;2023-04-07T09:25:58;12.70;;;8.90;;
13793;SDS011;31160;49.500;7.772;2023-04-07T09:28:44;11.10;;;7.37;;
13793;SDS011;31160;49.500;7.772;2023-04-07T09:31:12;10.77;;;7.23;;
13793;SDS011;31160;49.500;7.772;2023-04-07T09:33:39;11.00;;;6.90;;
13793;SDS011;31160;49.500;7.772;2023-04-07T09:36:06;8.37;;;6.10;;
13793;SDS011;31160;49.500;7.772;2023-04-07T09:38:37;9.47;;;6.70;;
13793;SDS011;31160;49.500;7.772;2023-04-07T09:41:09;7.80;;;5.83;;
13793;SDS011;31160;49.500;7.772;2023-04-07T09:43:36;29.03;;;17.67;;
13793;SDS011;31160;49.500;7.772;2023-04-07T09:46:08;8.13;;;6.03;;
13793;SDS011;31160;49.500;7.772;2023-04-07T09:48:36;7.70;;;6.20;;
13793;SDS011;31160;49.500;7.772;2023-04-07T09:51:05;7.97;;;6.27;;
13793;SDS011;31160;49.500;7.772;2023-04-07T09:53:46;6.37;;;5.30;;
13793;SDS011;31160;49.500;7.772;2023-04-07T09:56:15;9.33;;;5.57;;
13793;SDS011;31160;49.500;7.772;2023-04-07T09:58:45;5.93;;;4.70;;
13793;SDS011;31160;49.500;7.772;2023-04-07T10:01:14;7.73;;;5.60;;
13793;SDS011;31160;49.500;7.772;2023-04-07T10:03:42;6.57;;;5.07;;
13793;SDS011;31160;49.500;7.772;2023-04-07T10:06:12;4.57;;;4.17;;
13793;SDS011;31160;49.500;7.772;2023-04-07T10:08:40;5.83;;;4.10;;
13793;SDS011;31160;49.500;7.772;2023-04-07T10:11:08;7.07;;;4.80;;
13793;SDS011;31160;49.500;7.772;2023-04-07T10:13:35;5.43;;;4.37;;
13793;SDS011;31160;49.500;7.772;2023-04-07T10:16:05;4.90;;;4.00;;
13793;SDS011;31160;49.500;7.772;2023-04-07T10:18:34;5.10;;;4.07;;
13793;SDS011;31160;49.500;7.772;2023-04-07T10:21:03;5.00;;;4.30;;
13793;SDS011;31160;49.500;7.772;2023-04-07T10:23:51;7.27;;;4.57;;
13793;SDS011;31160;49.500;7.772;2023-04-07T10:26:20;4.70;;;4.20;;
13793;SDS011;31160;49.500;7.772;2023-04-07T10:28:54;5.27;;;4.37;;
13793;SDS011;31160;49.500;7.772;2023-04-07T10:31:25;6.10;;;3.93;;
13793;SDS011;31160;49.500;7.772;2023-04-07T10:33:52;4.73;;;4.00;;
13793;SDS011;31160;49.500;7.772;2023-04-07T10:36:20;3.50;;;3.10;;
13793;SDS011;31160;49.500;7.772;2023-04-07T10:41:39;4.10;;;3.20;;
13793;SDS011;31160;49.500;7.772;2023-04-07T10:44:07;4.03;;;3.20;;
13793;SDS011;31160;49.500;7.772;2023-04-07T10:49:10;5.97;;;4.27;;
13793;SDS011;31160;49.500;7.772;2023-04-07T10:51:38;4.57;;;3.80;;
13793;SDS011;31160;49.500;7.772;2023-04-07T10:54:14;7.50;;;5.70;;
13793;SDS011;31160;49.500;7.772;2023-04-07T10:59:28;7.93;;;4.60;;
13793;SDS011;31160;49.500;7.772;2023-04-07T11:04:38;4.30;;;3.50;;
13793;SDS011;31160;49.500;7.772;2023-04-07T11:07:06;5.77;;;4.20;;
13793;SDS011;31160;49.500;7.772;2023-04-07T11:09:32;5.17;;;4.07;;
13793;SDS011;31160;49.500;7.772;2023-04-07T11:11:59;5.40;;;4.27;;
13793;SDS011;31160;49.500;7.772;2023-04-07T11:14:26;6.50;;;4.67;;
13793;SDS011;31160;49.500;7.772;2023-04-07T11:16:54;5.33;;;4.17;;
13793;SDS011;31160;49.500;7.772;2023-04-07T11:19:21;23.33;;;15.90;;
13793;SDS011;31160;49.500;7.772;2023-04-07T11:21:48;14.00;;;9.97;;
13793;SDS011;31160;49.500;7.772;2023-04-07T11:24:34;5.20;;;4.67;;
13793;SDS011;31160;49.500;7.772;2023-04-07T11:27:04;5.17;;;3.90;;
13793;SDS011;31160;49.500;7.772;2023-04-07T11:29:32;5.27;;;3.97;;
13793;SDS011;31160;49.500;7.772;2023-04-07T11:32:00;5.83;;;4.03;;
13793;SDS011;31160;49.500;7.772;2023-04-07T11:34:31;5.40;;;3.93;;
13793;SDS011;31160;49.500;7.772;2023-04-07T11:37:17;4.40;;;3.13;;
13793;SDS011;31160;49.500;7.772;2023-04-07T11:39:54;7.10;;;4.30;;
13793;SDS011;31160;49.500;7.772;2023-04-07T11:42:35;4.17;;;3.47;;
13793;SDS011;31160;49.500;7.772;2023-04-07T11:45:03;5.10;;;3.80;;
13793;SDS011;31160;49.500;7.772;2023-04-07T11:47:36;5.80;;;4.10;;
13793;SDS011;31160;49.500;7.772;2023-04-07T11:50:05;4.77;;;3.73;;
13793;SDS011;31160;49.500;7.772;2023-04-07T11:52:46;4.97;;;3.80;;
13793;SDS011;31160;49.500;7.772;2023-04-07T11:55:20;4.57;;;3.63;;
13793;SDS011;31160;49.500;7.772;2023-04-07T11:57:49;4.17;;;3.30;;
13793;SDS011;31160;49.500;7.772;2023-04-07T12:00:17;6.40;;;3.60;;
13793;SDS011;31160;49.500;7.772;2023-04-07T12:02:45;4.40;;;3.40;;
13793;SDS011;31160;49.500;7.772;2023-04-07T12:05:12;3.30;;;2.07;;
13793;SDS011;31160;49.500;7.772;2023-04-07T12:07:39;1.40;;;1.30;;
13793;SDS011;31160;49.500;7.772;2023-04-07T12:10:18;3.10;;;1.37;;
13793;SDS011;31160;49.500;7.772;2023-04-07T12:12:45;1.73;;;1.30;;
13793;SDS011;31160;49.500;7.772;2023-04-07T12:15:13;3.53;;;1.47;;
13793;SDS011;31160;49.500;7.772;2023-04-07T12:17:43;3.50;;;1.50;;
13793;SDS011;31160;49.500;7.772;2023-04-07T12:20:13;1.60;;;1.37;;
13793;SDS011;31160;49.500;7.772;2023-04-07T12:22:40;2.17;;;1.23;;
13793;SDS011;31160;49.500;7.772;2023-04-07T12:25:07;1.10;;;0.90;;
13793;SDS011;31160;49.500;7.772;2023-04-07T12:27:34;2.00;;;1.20;;
13793;SDS011;31160;49.500;7.772;2023-04-07T12:30:08;2.37;;;1.70;;
13793;SDS011;31160;49.500;7.772;2023-04-07T12:32:35;3.60;;;1.83;;
13793;SDS011;31160;49.500;7.772;2023-04-07T12:35:04;2.00;;;1.33;;
13793;SDS011;31160;49.500;7.772;2023-04-07T12:37:31;1.40;;;1.00;;
13793;SDS011;31160;49.500;7.772;2023-04-07T12:39:58;1.00;;;0.73;;
13793;SDS011;31160;49.500;7.772;2023-04-07T12:42:25;2.23;;;1.27;;
13793;SDS011;31160;49.500;7.772;2023-04-07T12:44:52;3.07;;;1.67;;
13793;SDS011;31160;49.500;7.772;2023-04-07T12:47:19;2.70;;;1.10;;
13793;SDS011;31160;49.500;7.772;2023-04-07T12:49:46;1.90;;;1.77;;
13793;SDS011;31160;49.500;7.772;2023-04-07T12:52:15;1.53;;;1.37;;
13793;SDS011;31160;49.500;7.772;2023-04-07T12:54:42;1.40;;;1.17;;
13793;SDS011;31160;49.500;7.772;2023-04-07T12:57:10;2.50;;;1.70;;
13793;SDS011;31160;49.500;7.772;2023-04-07T12:59:37;2.27;;;1.50;;
13793;SDS011;31160;49.500;7.772;2023-04-07T13:02:03;1.80;;;1.20;;
13793;SDS011;31160;49.500;7.772;2023-04-07T13:04:31;1.50;;;0.90;;
13793;SDS011;31160;49.500;7.772;2023-04-07T13:06:58;2.10;;;1.10;;
13793;SDS011;31160;49.500;7.772;2023-04-07T13:09:26;1.37;;;1.00;;
13793;SDS011;31160;49.500;7.772;2023-04-07T13:11:52;1.47;;;1.17;;
13793;SDS011;31160;49.500;7.772;2023-04-07T13:14:19;1.90;;;0.40;;
13793;SDS011;31160;49.500;7.772;2023-04-07T13:16:46;1.10;;;0.70;;
13793;SDS011;31160;49.500;7.772;2023-04-07T13:19:13;1.00;;;0.70;;
13793;SDS011;31160;49.500;7.772;2023-04-07T13:21:40;1.00;;;0.67;;
13793;SDS011;31160;49.500;7.772;2023-04-07T13:24:13;0.80;;;0.60;;
13793;SDS011;31160;49.500;7.772;2023-04-07T13:26:39;1.10;;;0.70;;
13793;SDS011;31160;49.500;7.772;2023-04-07T13:29:06;1.50;;;0.60;;
13793;SDS011;31160;49.500;7.772;2023-04-07T13:31:33;2.23;;;0.93;;
13793;SDS011;31160;49.500;7.772;2023-04-07T13:34:00;1.20;;;1.10;;
13793;SDS011;31160;49.500;7.772;2023-04-07T13:36:27;4.03;;;2.90;;
13793;SDS011;31160;49.500;7.772;2023-04-07T13:38:54;6.30;;;3.90;;
13793;SDS011;31160;49.500;7.772;2023-04-07T13:41:22;1.60;;;1.50;;
13793;SDS011;31160;49.500;7.772;2023-04-07T13:43:48;1.70;;;1.47;;
13793;SDS011;31160;49.500;7.772;2023-04-07T13:46:16;3.63;;;1.80;;
13793;SDS011;31160;49.500;7.772;2023-04-07T13:48:54;1.80;;;1.60;;
13793;SDS011;31160;49.500;7.772;2023-04-07T13:51:21;2.80;;;1.80;;
13793;SDS011;31160;49.500;7.772;2023-04-07T13:53:48;2.87;;;2.10;;
13793;SDS011;31160;49.500;7.772;2023-04-07T13:56:15;2.93;;;2.03;;
13793;SDS011;31160;49.500;7.772;2023-04-07T13:58:42;2.10;;;1.77;;
13793;SDS011;31160;49.500;7.772;2023-04-07T14:01:09;3.30;;;1.97;;
13793;SDS011;31160;49.500;7.772;2023-04-07T14:03:36;2.53;;;2.20;;
13793;SDS011;31160;49.500;7.772;2023-04-07T14:06:03;2.50;;;2.10;;
13793;SDS011;31160;49.500;7.772;2023-04-07T14:08:30;2.43;;;2.03;;
13793;SDS011;31160;49.500;7.772;2023-04-07T14:10:57;2.13;;;1.93;;
13793;SDS011;31160;49.500;7.772;2023-04-07T14:13:24;2.27;;;2.07;;
13793;SDS011;31160;49.500;7.772;2023-04-07T14:15:50;1.70;;;1.50;;
13793;SDS011;31160;49.500;7.772;2023-04-07T14:18:19;7.87;;;5.77;;
13793;SDS011;31160;49.500;7.772;2023-04-07T14:20:45;3.87;;;2.37;;
13793;SDS011;31160;49.500;7.772;2023-04-07T14:23:12;3.43;;;2.33;;
13793;SDS011;31160;49.500;7.772;2023-04-07T14:25:48;3.20;;;2.17;;
13793;SDS011;31160;49.500;7.772;2023-04-07T14:28:15;2.97;;;2.13;;
13793;SDS011;31160;49.500;7.772;2023-04-07T14:30:42;3.27;;;2.33;;
13793;SDS011;31160;49.500;7.772;2023-04-07T14:33:09;3.30;;;2.30;;
13793;SDS011;31160;49.500;7.772;2023-04-07T14:35:36;2.60;;;2.33;;
13793;SDS011;31160;49.500;7.772;2023-04-07T14:38:03;4.63;;;2.77;;
13793;SDS011;31160;49.500;7.772;2023-04-07T14:40:30;3.07;;;2.37;;
13793;SDS011;31160;49.500;7.772;2023-04-07T14:42:57;4.20;;;2.40;;
13793;SDS011;31160;49.500;7.772;2023-04-07T14:45:27;3.50;;;2.50;;
13793;SDS011;31160;49.500;7.772;2023-04-07T14:47:54;9.17;;;6.10;;
13793;SDS011;31160;49.500;7.772;2023-04-07T14:50:21;13.00;;;7.43;;
13793;SDS011;31160;49.500;7.772;2023-04-07T14:52:49;2.53;;;2.33;;
13793;SDS011;31160;49.500;7.772;2023-04-07T14:55:15;2.67;;;2.30;;
13793;SDS011;31160;49.500;7.772;2023-04-07T14:57:43;4.37;;;2.43;;
13793;SDS011;31160;49.500;7.772;2023-04-07T15:00:10;3.30;;;2.00;;
13793;SDS011;31160;49.500;7.772;2023-04-07T15:02:37;2.30;;;1.73;;
13793;SDS011;31160;49.500;7.772;2023-04-07T15:05:05;3.43;;;1.83;;
13793;SDS011;31160;49.500;7.772;2023-04-07T15:07:32;1.30;;;1.20;;
13793;SDS011;31160;49.500;7.772;2023-04-07T15:09:59;6.27;;;3.03;;
13793;SDS011;31160;49.500;7.772;2023-04-07T15:12:26;5.53;;;3.27;;
13793;SDS011;31160;49.500;7.772;2023-04-07T15:14:54;7.00;;;3.60;;